Time;durP1;ratioP1;P1;durP2;ratioP2;P2;SDS_P1;SDS_P2;PMS_P1;PMS_P2;Temp;Humidity;BMP_temperature;BMP_pressure;BME280_temperature;BME280_humidity;BME280_pressure;Samples;Min_cycle;Max_cycle;Signal;HPM_P1;HPM_P2
2022/09/02 00:01:30;;;;;;;0.90;0.90;;;13.60;1.00;;;;;;6184781;23;20182;-89
2022/09/02 00:03:58;;;;;;;1.40;0.87;;;12.70;1.00;;;;;;6185080;23;20175;-89
2022/09/02 00:06:25;;;;;;;1.50;0.73;;;12.50;1.00;;;;;;6186803;23;20560;-89
2022/09/02 00:08:51;;;;;;;1.00;0.70;;;12.40;1.00;;;;;;6184701;23;20187;-88
2022/09/02 00:11:20;;;;;;;0.63;0.60;;;12.50;1.00;;;;;;6185813;23;20178;-89
2022/09/02 00:13:46;;;;;;;0.70;0.70;;;12.40;1.00;;;;;;6185199;23;20231;-88
2022/09/02 00:16:12;;;;;;;1.80;0.77;;;12.30;1.00;;;;;;6186236;23;20175;-90
2022/09/02 00:18:40;;;;;;;1.50;0.80;;;12.20;1.00;;;;;;6184676;23;20549;-89
2022/09/02 00:21:07;;;;;;;0.93;0.80;;;12.10;1.00;;;;;;6185076;23;20158;-88
2022/09/02 00:23:32;;;;;;;1.03;0.70;;;12.60;1.00;;;;;;6184626;23;20187;-88
2022/09/02 00:25:59;;;;;;;2.30;0.80;;;12.30;1.00;;;;;;6184577;23;20570;-87
2022/09/02 00:28:24;;;;;;;1.23;0.80;;;12.40;1.00;;;;;;6184149;23;20163;-88
2022/09/02 00:30:50;;;;;;;1.07;0.83;;;12.50;1.00;;;;;;6183941;23;20160;-89
2022/09/02 00:33:16;;;;;;;0.73;0.67;;;12.40;1.00;;;;;;6159377;23;20190;-89
2022/09/02 00:35:42;;;;;;;1.67;0.70;;;12.90;1.00;;;;;;6184353;23;20266;-88
2022/09/02 00:38:09;;;;;;;2.27;0.90;;;12.30;1.00;;;;;;6184429;23;20189;-88
2022/09/02 00:40:35;;;;;;;1.23;0.80;;;12.20;1.00;;;;;;6184125;23;20159;-88
2022/09/02 00:43:06;;;;;;;1.03;0.67;;;12.70;1.00;;;;;;6183820;23;20162;-89
2022/09/02 00:45:31;;;;;;;1.07;0.70;;;12.20;1.00;;;;;;6184743;23;20147;-88
2022/09/02 00:47:57;;;;;;;0.83;0.70;;;12.10;1.00;;;;;;6184718;23;20186;-89
2022/09/02 00:50:28;;;;;;;0.90;0.80;;;12.00;1.00;;;;;;6184377;23;20190;-88
2022/09/02 00:53:01;;;;;;;0.67;0.60;;;12.10;1.00;;;;;;6184551;23;20233;-88
2022/09/02 00:55:31;;;;;;;1.83;0.90;;;12.10;1.00;;;;;;6184155;23;20527;-88
2022/09/02 00:58:16;;;;;;;2.37;0.80;;;12.10;1.00;;;;;;6184508;23;20595;-89
2022/09/02 01:00:44;;;;;;;0.80;0.80;;;12.20;1.00;;;;;;6184095;23;20218;-88
2022/09/02 01:03:14;;;;;;;1.93;0.70;;;12.20;1.00;;;;;;6184189;23;20205;-88
2022/09/02 01:05:45;;;;;;;2.30;0.77;;;13.50;1.00;;;;;;6184075;23;20162;-89
2022/09/02 01:08:18;;;;;;;1.53;0.90;;;12.10;1.00;;;;;;6184131;23;20165;-88
2022/09/02 01:10:46;;;;;;;1.73;0.80;;;12.10;1.00;;;;;;6184563;23;20206;-87
2022/09/02 01:13:15;;;;;;;0.97;0.90;;;12.10;1.00;;;;;;6189427;23;20174;-88
2022/09/02 01:15:45;;;;;;;0.77;0.77;;;12.10;1.00;;;;;;6184947;23;20218;-88
2022/09/02 01:18:17;;;;;;;2.00;0.83;;;12.10;1.00;;;;;;6184023;23;20209;-87
2022/09/02 01:20:43;;;;;;;0.80;0.80;;;12.10;1.00;;;;;;6184054;23;20345;-88
2022/09/02 01:23:10;;;;;;;0.83;0.80;;;12.10;1.00;;;;;;6183954;23;20159;-88
2022/09/02 01:25:35;;;;;;;0.87;0.80;;;12.00;1.00;;;;;;6183658;23;20257;-88
2022/09/02 01:28:06;;;;;;;0.93;0.90;;;12.00;1.00;;;;;;6185359;23;20519;-88
2022/09/02 01:30:33;;;;;;;1.20;1.00;;;11.90;1.00;;;;;;6183862;23;20156;-87
2022/09/02 01:32:58;;;;;;;2.07;0.90;;;12.00;1.00;;;;;;6183714;23;20161;-88
2022/09/02 01:35:24;;;;;;;2.87;0.93;;;11.90;1.00;;;;;;6183206;23;20217;-88
2022/09/02 01:37:54;;;;;;;2.10;0.60;;;11.90;1.00;;;;;;6185268;23;20234;-88
2022/09/02 01:40:22;;;;;;;2.07;0.90;;;11.80;1.00;;;;;;6183525;23;20154;-89
2022/09/02 01:42:54;;;;;;;1.23;1.00;;;11.80;1.00;;;;;;6184061;23;20178;-89
2022/09/02 01:45:19;;;;;;;1.10;1.00;;;11.70;1.00;;;;;;6183855;23;20231;-88
2022/09/02 01:47:45;;;;;;;0.70;0.60;;;11.70;1.00;;;;;;6183476;23;20186;-88
2022/09/02 01:50:11;;;;;;;2.70;1.10;;;11.70;1.00;;;;;;6183540;23;20182;-88
2022/09/02 01:52:36;;;;;;;2.40;0.70;;;11.70;1.00;;;;;;6183664;23;20626;-88
2022/09/02 01:55:03;;;;;;;1.57;1.00;;;11.60;1.00;;;;;;6183387;23;20211;-88
2022/09/02 01:57:28;;;;;;;1.20;0.80;;;11.40;1.00;;;;;;6183725;23;20194;-88
2022/09/02 01:59:54;;;;;;;1.17;0.90;;;11.40;1.00;;;;;;6183726;23;20167;-87
2022/09/02 02:02:20;;;;;;;1.27;1.10;;;11.40;1.00;;;;;;6183559;23;20151;-87
2022/09/02 02:04:47;;;;;;;1.07;0.90;;;11.40;1.00;;;;;;6183537;23;20174;-88
2022/09/02 02:07:14;;;;;;;1.10;0.93;;;11.40;1.00;;;;;;6183460;23;20167;-88
2022/09/02 02:09:40;;;;;;;1.30;0.90;;;11.30;1.00;;;;;;6183498;23;20238;-88
2022/09/02 02:12:07;;;;;;;1.20;0.77;;;11.20;2.40;;;;;;6184007;23;20583;-88
2022/09/02 02:14:33;;;;;;;1.50;1.20;;;11.10;1.20;;;;;;6182750;23;20179;-88
2022/09/02 02:16:59;;;;;;;1.17;1.07;;;11.20;1.00;;;;;;6182444;23;20191;-88
2022/09/02 02:19:24;;;;;;;1.13;1.00;;;11.20;12.50;;;;;;6182568;23;20244;-87
2022/09/02 02:21:50;;;;;;;1.73;1.40;;;11.10;1.80;;;;;;6182383;23;20155;-88
2022/09/02 02:24:16;;;;;;;1.67;1.10;;;11.10;18.10;;;;;;6182123;23;20183;-87
2022/09/02 02:26:42;;;;;;;1.23;1.10;;;11.10;16.50;;;;;;6181176;23;20197;-87
2022/09/02 02:29:08;;;;;;;3.30;1.20;;;11.00;13.70;;;;;;6182139;23;20166;-87
2022/09/02 02:31:34;;;;;;;2.33;1.23;;;11.10;1.20;;;;;;6183888;23;20151;-88
2022/09/02 02:34:00;;;;;;;2.33;1.07;;;11.20;1.00;;;;;;6182461;23;20191;-88
2022/09/02 02:36:26;;;;;;;1.33;0.90;;;11.20;1.00;;;;;;6181718;23;20249;-88
2022/09/02 02:38:52;;;;;;;0.83;0.83;;;11.10;1.00;;;;;;6182314;23;20600;-88
2022/09/02 02:41:17;;;;;;;1.67;0.90;;;11.20;1.00;;;;;;6182108;23;20183;-87
2022/09/02 02:43:43;;;;;;;1.67;1.00;;;11.10;1.00;;;;;;6182221;23;20179;-87
2022/09/02 02:46:10;;;;;;;2.53;1.40;;;11.00;1.00;;;;;;6182850;23;20502;-87
2022/09/02 02:48:37;;;;;;;1.10;1.00;;;11.00;10.60;;;;;;6181436;23;20206;-88
2022/09/02 02:51:03;;;;;;;2.33;1.07;;;10.90;2.90;;;;;;6181621;23;20163;-89
2022/09/02 02:53:30;;;;;;;1.07;0.90;;;10.90;1.00;;;;;;6181807;23;20182;-89
2022/09/02 02:55:58;;;;;;;1.47;1.10;;;10.80;1.00;;;;;;6181251;23;20484;-87
2022/09/02 02:58:24;;;;;;;1.20;1.10;;;10.70;1.00;;;;;;6181034;23;20159;-88
2022/09/02 03:00:50;;;;;;;3.57;1.30;;;10.70;1.00;;;;;;6181638;23;20163;-88
2022/09/02 03:03:18;;;;;;;1.20;1.10;;;10.70;1.00;;;;;;6181678;23;20171;-88
2022/09/02 03:05:44;;;;;;;1.20;1.07;;;10.70;1.00;;;;;;6183641;23;20258;-88
2022/09/02 03:08:10;;;;;;;1.60;1.07;;;10.70;1.00;;;;;;6183232;23;20158;-87
2022/09/02 03:10:39;;;;;;;1.30;0.97;;;10.60;1.00;;;;;;6183031;23;20166;-87
2022/09/02 03:13:06;;;;;;;1.37;1.27;;;10.60;1.00;;;;;;6183183;23;20170;-87
2022/09/02 03:15:32;;;;;;;2.00;1.10;;;10.60;4.00;;;;;;6182638;23;20187;-87
2022/09/02 03:17:58;;;;;;;1.30;1.20;;;10.60;4.30;;;;;;6183170;23;20213;-89
2022/09/02 03:20:24;;;;;;;1.40;1.30;;;10.50;12.70;;;;;;6182843;23;20167;-89
2022/09/02 03:22:53;;;;;;;2.33;1.20;;;10.50;14.40;;;;;;6182906;23;20478;-88
2022/09/02 03:25:20;;;;;;;1.20;1.00;;;10.40;11.60;;;;;;6184525;23;20167;-88
2022/09/02 03:27:46;;;;;;;1.20;1.10;;;10.40;16.00;;;;;;6183077;23;20167;-88
2022/09/02 03:30:16;;;;;;;1.53;1.43;;;10.40;21.30;;;;;;6183054;23;20661;-89
2022/09/02 03:32:42;;;;;;;2.57;1.13;;;10.30;24.60;;;;;;6183318;23;20170;-88
2022/09/02 03:35:11;;;;;;;2.03;1.10;;;10.30;27.00;;;;;;6183758;23;20206;-89
2022/09/02 03:37:37;;;;;;;1.33;1.23;;;10.20;45.20;;;;;;6184198;23;20186;-88
2022/09/02 03:40:08;;;;;;;2.60;1.40;;;10.10;58.10;;;;;;6184004;23;20267;-89
2022/09/02 03:42:33;;;;;;;2.37;1.30;;;9.90;55.10;;;;;;6183744;23;20596;-88
2022/09/02 03:45:01;;;;;;;1.40;1.30;;;9.80;59.70;;;;;;6183964;23;20182;-88
2022/09/02 03:47:28;;;;;;;1.97;1.50;;;9.70;68.00;;;;;;6183954;23;20156;-88
2022/09/02 03:49:54;;;;;;;1.40;1.30;;;9.50;85.10;;;;;;6183368;23;20190;-88
2022/09/02 03:52:20;;;;;;;1.43;1.33;;;9.50;88.10;;;;;;6183437;23;20479;-89
2022/09/02 03:54:46;;;;;;;1.73;1.47;;;9.40;90.40;;;;;;6183436;23;20289;-88
2022/09/02 03:57:11;;;;;;;1.67;1.50;;;9.40;90.10;;;;;;6182990;23;20217;-87
2022/09/02 03:59:37;;;;;;;2.50;1.60;;;9.30;93.60;;;;;;6183259;23;20159;-88
2022/09/02 04:02:03;;;;;;;2.13;1.20;;;9.50;72.50;;;;;;6182996;23;20155;-89
2022/09/02 04:04:29;;;;;;;1.50;1.40;;;9.60;48.30;;;;;;6186460;23;20175;-87
2022/09/02 04:06:55;;;;;;;1.60;1.43;;;9.50;58.70;;;;;;6185282;23;20349;-88
2022/09/02 04:09:21;;;;;;;1.97;1.30;;;11.10;61.80;;;;;;6183829;23;20190;-89
2022/09/02 04:11:47;;;;;;;1.40;1.30;;;9.50;45.80;;;;;;6184679;23;20498;-88
2022/09/02 04:14:12;;;;;;;2.00;1.43;;;9.50;53.20;;;;;;6183207;23;20182;-87
2022/09/02 04:16:38;;;;;;;1.93;1.23;;;9.40;76.40;;;;;;6183288;23;20194;-88
2022/09/02 04:19:04;;;;;;;1.43;1.33;;;9.30;91.20;;;;;;6183080;23;20492;-89
2022/09/02 04:21:33;;;;;;;2.53;1.47;;;9.30;68.00;;;;;;6183367;23;20238;-88
2022/09/02 04:23:59;;;;;;;1.37;1.27;;;9.50;56.70;;;;;;6183659;23;20209;-89
2022/09/02 04:26:25;;;;;;;1.50;1.40;;;10.00;64.40;;;;;;6182454;23;20178;-89
2022/09/02 04:28:52;;;;;;;1.67;1.53;;;9.50;58.40;;;;;;6183208;23;20167;-87
2022/09/02 04:31:20;;;;;;;1.73;1.63;;;9.50;68.10;;;;;;6183447;23;20162;-88
2022/09/02 04:33:48;;;;;;;1.60;1.50;;;9.40;90.50;;;;;;6182563;23;20252;-90
2022/09/02 04:36:15;;;;;;;1.50;1.40;;;9.40;78.10;;;;;;6182648;23;20183;-88
2022/09/02 04:38:41;;;;;;;2.77;1.47;;;9.40;59.40;;;;;;6183228;23;20591;-89
2022/09/02 04:41:09;;;;;;;2.93;1.40;;;9.40;62.60;;;;;;6183963;23;20155;-89
2022/09/02 04:43:35;;;;;;;1.83;1.30;;;9.40;78.80;;;;;;6182969;23;20246;-88
2022/09/02 04:46:05;;;;;;;1.50;1.40;;;9.40;70.30;;;;;;6182260;23;20163;-88
2022/09/02 04:48:31;;;;;;;1.70;1.60;;;9.50;68.90;;;;;;6183059;23;20183;-89
2022/09/02 04:51:01;;;;;;;2.33;1.50;;;9.40;80.80;;;;;;6182562;23;20246;-89
2022/09/02 04:53:27;;;;;;;1.53;1.43;;;9.30;92.80;;;;;;6183063;23;20630;-88
2022/09/02 04:55:53;;;;;;;2.23;1.50;;;9.30;99.90;;;;;;6183278;23;20202;-89
2022/09/02 04:58:19;;;;;;;2.10;1.77;;;9.30;92.00;;;;;;6183338;23;20159;-89
2022/09/02 05:00:45;;;;;;;1.90;1.60;;;9.30;99.90;;;;;;6182913;23;20167;-90
2022/09/02 05:03:23;;;;;;;4.53;1.87;;;9.20;99.90;;;;;;6180673;23;20159;-89
2022/09/02 05:06:01;;;;;;;1.97;1.67;;;9.30;99.90;;;;;;6181825;23;20163;-89
2022/09/02 05:08:27;;;;;;;3.77;1.70;;;9.40;96.40;;;;;;6182315;23;20151;-89
2022/09/02 05:10:53;;;;;;;1.73;1.60;;;9.40;92.90;;;;;;6183092;23;20599;-89
2022/09/02 05:13:23;;;;;;;2.70;1.90;;;9.40;99.70;;;;;;6183040;23;20186;-89
2022/09/02 05:15:49;;;;;;;2.00;1.70;;;9.80;99.90;;;;;;6183396;23;20183;-88
2022/09/02 05:18:14;;;;;;;3.70;2.10;;;9.30;99.90;;;;;;6183638;23;20207;-88
2022/09/02 05:20:42;;;;;;;2.50;1.80;;;9.40;99.90;;;;;;6183426;23;20523;-89
2022/09/02 05:23:09;;;;;;;2.10;1.60;;;9.40;99.90;;;;;;6183208;23;20155;-86
2022/09/02 05:25:36;;;;;;;1.57;1.47;;;9.40;99.90;;;;;;6182340;23;20229;-88
2022/09/02 05:28:03;;;;;;;2.10;1.50;;;9.60;99.90;;;;;;6182668;23;20242;-89
2022/09/02 05:30:28;;;;;;;2.40;2.00;;;10.50;99.90;;;;;;6183384;23;20208;-89
2022/09/02 05:32:54;;;;;;;2.33;2.00;;;9.70;99.90;;;;;;6183356;23;20250;-89
2022/09/02 05:35:20;;;;;;;4.33;2.00;;;10.40;99.90;;;;;;6182788;23;20245;-89
2022/09/02 05:37:46;;;;;;;2.37;2.00;;;9.90;99.90;;;;;;6183221;23;20614;-89
2022/09/02 05:40:11;;;;;;;2.10;1.87;;;10.40;99.90;;;;;;6183312;23;20151;-88
2022/09/02 05:42:38;;;;;;;2.40;2.07;;;10.50;99.90;;;;;;6183659;23;20181;-90
2022/09/02 05:45:05;;;;;;;2.07;1.97;;;10.20;99.90;;;;;;6183243;23;20178;-88
2022/09/02 05:47:32;;;;;;;2.67;1.90;;;10.40;99.90;;;;;;6185508;23;20184;-88
2022/09/02 05:50:00;;;;;;;2.10;1.90;;;10.60;99.90;;;;;;6183805;23;20170;-88
2022/09/02 05:52:26;;;;;;;4.17;1.90;;;12.40;99.90;;;;;;6183071;23;20163;-89
2022/09/02 05:54:53;;;;;;;3.20;1.63;;;10.90;96.70;;;;;;6183078;23;20205;-88
2022/09/02 05:57:19;;;;;;;2.77;2.07;;;11.00;96.40;;;;;;6183224;23;20809;-89
2022/09/02 05:59:46;;;;;;;2.27;2.00;;;11.70;95.80;;;;;;6182816;23;20534;-90
2022/09/02 06:02:14;;;;;;;2.23;2.03;;;12.30;92.40;;;;;;6183357;23;20600;-89
2022/09/02 06:04:43;;;;;;;2.00;1.80;;;11.90;90.90;;;;;;6183412;23;20182;-89
2022/09/02 06:07:09;;;;;;;1.87;1.70;;;12.60;80.50;;;;;;6184856;23;20153;-89
2022/09/02 06:09:35;;;;;;;3.33;1.73;;;11.90;74.20;;;;;;6183686;23;20163;-90
2022/09/02 06:12:02;;;;;;;2.17;1.97;;;12.30;62.00;;;;;;6183633;23;20769;-89
2022/09/02 06:14:32;;;;;;;3.37;1.97;;;12.10;47.10;;;;;;6183354;23;20183;-89
2022/09/02 06:16:59;;;;;;;2.63;2.30;;;12.30;46.20;;;;;;6159893;23;20191;-89
2022/09/02 06:19:29;;;;;;;2.00;1.80;;;12.70;32.80;;;;;;6184222;23;20183;-88
2022/09/02 06:21:55;;;;;;;3.80;1.87;;;12.60;25.70;;;;;;6184511;23;20163;-89
2022/09/02 06:24:22;;;;;;;2.30;1.73;;;14.10;27.00;;;;;;6185106;23;20182;-90
2022/09/02 06:26:48;;;;;;;2.10;1.70;;;12.80;18.10;;;;;;6185302;23;20178;-89
2022/09/02 06:29:15;;;;;;;2.03;1.87;;;12.90;8.40;;;;;;6188097;23;20163;-89
2022/09/02 06:31:47;;;;;;;2.13;1.50;;;13.30;1.00;;;;;;6186584;23;20591;-89
2022/09/02 06:34:19;;;;;;;1.90;1.25;;;14.30;1.00;;;;;;6183857;23;20183;-88
2022/09/02 06:36:46;;;;;;;2.92;1.60;;;14.70;1.00;;;;;;6184033;23;20178;-88
2022/09/02 06:39:17;;;;;;;3.25;1.40;;;15.20;1.00;;;;;;6183612;23;20178;-89
2022/09/02 06:41:45;;;;;;;2.22;1.40;;;16.00;1.00;;;;;;6183625;23;20143;-90
2022/09/02 06:44:12;;;;;;;1.20;1.10;;;16.20;99.90;;;;;;6185499;23;20163;-89
2022/09/02 06:46:46;;;;;;;1.55;1.10;;;16.70;1.00;;;;;;6183554;23;20186;-89
2022/09/02 06:49:15;;;;;;;1.17;1.08;;;17.40;95.60;;;;;;6186220;23;20146;-89
2022/09/02 06:51:44;;;;;;;1.20;1.10;;;18.70;1.00;;;;;;6183841;23;20238;-88
2022/09/02 06:54:14;;;;;;;2.63;0.90;;;18.70;99.90;;;;;;6184361;23;20183;-90
2022/09/02 06:56:41;;;;;;;3.17;1.20;;;18.30;99.90;;;;;;6186922;23;20682;-90
2022/09/02 06:59:08;;;;;;;5.22;1.98;;;18.60;99.90;;;;;;6186055;23;20155;-90
2022/09/02 07:01:38;;;;;;;6.13;1.20;;;19.50;1.00;;;;;;6184082;23;20241;-87
2022/09/02 07:06:51;;;;;;;2.33;1.08;;;18.90;1.00;;;;;;6185646;23;20630;-89
2022/09/02 07:09:20;;;;;;;3.35;1.25;;;18.40;99.90;;;;;;6184448;23;20165;-89
2022/09/02 07:11:48;;;;;;;3.35;1.27;;;18.00;1.00;;;;;;6184782;23;20159;-89
2022/09/02 07:14:19;;;;;;;9.25;1.55;;;17.60;91.70;;;;;;6184143;23;20183;-89
2022/09/02 07:16:49;;;;;;;3.55;1.48;;;17.30;1.00;;;;;;6183866;23;20189;-89
2022/09/02 07:19:16;;;;;;;3.03;1.15;;;18.10;1.00;;;;;;6183702;23;20155;-89
2022/09/02 07:21:41;;;;;;;3.72;1.30;;;17.20;99.90;;;;;;6185292;23;20151;-90
2022/09/02 07:25:03;;;;;;;2.17;1.10;;;17.10;1.00;;;;;;6184736;23;20179;-90
2022/09/02 07:27:30;;;;;;;1.92;1.10;;;17.10;1.00;;;;;;6184755;23;20244;-86
2022/09/02 07:29:56;;;;;;;1.90;1.35;;;17.20;1.00;;;;;;6184021;23;20167;-90
2022/09/02 07:32:22;;;;;;;4.32;1.55;;;17.60;1.00;;;;;;6185195;23;20159;-89
2022/09/02 07:34:54;;;;;;;4.43;1.55;;;18.00;1.00;;;;;;6183353;23;20233;-90
2022/09/02 07:37:21;;;;;;;3.38;1.27;;;17.30;1.00;;;;;;6184774;23;20217;-91
2022/09/02 07:40:03;;;;;;;2.33;1.20;;;17.50;99.90;;;;;;6184996;23;20612;-88
2022/09/02 07:42:30;;;;;;;2.22;1.20;;;17.40;99.90;;;;;;6183465;23;20139;-88
2022/09/02 07:44:57;;;;;;;1.33;1.20;;;17.50;92.20;;;;;;6183477;23;20171;-88
2022/09/02 07:47:22;;;;;;;2.85;1.20;;;17.80;1.00;;;;;;6183588;23;20151;-90
2022/09/02 07:49:50;;;;;;;3.10;1.20;;;17.70;1.00;;;;;;6184535;23;20319;-88
2022/09/02 07:52:16;;;;;;;3.00;1.13;;;18.10;1.00;;;;;;6185677;23;20154;-88
2022/09/02 07:54:42;;;;;;;1.58;1.40;;;17.80;99.90;;;;;;6187312;23;20186;-88
2022/09/02 07:57:08;;;;;;;4.15;1.65;;;18.00;99.90;;;;;;6184949;23;20187;-89
2022/09/02 07:59:34;;;;;;;2.10;1.17;;;19.00;1.00;;;;;;6185327;23;20198;-89
2022/09/02 08:02:05;;;;;;;2.65;1.30;;;18.10;99.90;;;;;;6184897;23;20162;-87
2022/09/02 08:04:30;;;;;;;1.58;1.27;;;18.40;55.40;;;;;;6184776;23;20171;-87
2022/09/02 08:06:57;;;;;;;1.70;1.10;;;19.00;1.00;;;;;;6184514;23;20163;-87
2022/09/02 08:09:23;;;;;;;1.52;1.23;;;18.30;99.90;;;;;;6184427;23;20160;-87
2022/09/02 08:11:49;;;;;;;1.33;1.10;;;18.90;99.90;;;;;;6184520;23;20176;-88
2022/09/02 08:14:19;;;;;;;1.58;1.10;;;18.40;99.90;;;;;;6185005;23;20183;-87
2022/09/02 08:16:46;;;;;;;2.35;1.20;;;18.50;99.90;;;;;;6182581;23;20245;-87
2022/09/02 08:19:12;;;;;;;1.83;1.23;;;18.50;99.90;;;;;;6182416;23;20159;-90
2022/09/02 08:21:38;;;;;;;3.58;1.48;;;19.50;99.90;;;;;;6183531;23;20504;-90
2022/09/02 08:24:04;;;;;;;2.78;1.30;;;19.30;99.90;;;;;;6182430;23;20185;-88
2022/09/02 08:26:30;;;;;;;3.55;1.73;;;;;;;;;;6180362;23;20254;-88
2022/09/02 08:28:55;;;;;;;6.00;1.73;;;18.90;1.00;;;;;;6181061;23;20163;-87
2022/09/02 08:31:21;;;;;;;4.43;1.13;;;19.10;99.90;;;;;;6181713;23;20189;-88
2022/09/02 08:33:48;;;;;;;3.38;1.33;;;20.20;1.00;;;;;;6182906;23;20222;-89
2022/09/02 08:36:14;;;;;;;3.25;1.35;;;19.30;1.00;;;;;;6177593;23;20187;-89
2022/09/02 08:38:41;;;;;;;4.40;1.30;;;19.30;1.00;;;;;;6177773;23;20666;-89
2022/09/02 08:41:15;;;;;;;2.72;1.20;;;19.60;1.00;;;;;;6178914;23;20242;-89
2022/09/02 08:43:43;;;;;;;4.60;1.20;;;19.50;1.00;;;;;;6181540;23;20175;-90
2022/09/02 08:46:13;;;;;;;2.97;0.90;;;19.60;99.90;;;;;;6182915;23;20166;-89
2022/09/02 08:48:45;;;;;;;1.67;0.90;;;19.70;99.90;;;;;;6181971;23;20181;-87
2022/09/02 08:51:26;;;;;;;3.58;1.15;;;19.70;99.90;;;;;;6179489;23;20154;-89
2022/09/02 08:54:31;;;;;;;2.53;1.15;;;19.60;62.30;;;;;;6176583;23;20179;-86
2022/09/02 08:56:57;;;;;;;2.72;0.95;;;20.50;22.20;;;;;;6175835;23;20265;-89
2022/09/02 08:59:25;;;;;;;3.05;0.90;;;;;;;;;;6177198;23;20666;-86
2022/09/02 09:02:26;;;;;;;3.58;1.00;;;19.90;1.00;;;;;;6180397;23;20154;-86
2022/09/02 09:04:54;;;;;;;2.53;0.80;;;20.00;1.00;;;;;;6177552;23;20278;-84
2022/09/02 09:07:38;;;;;;;5.13;1.20;;;20.10;1.00;;;;;;6178775;23;20166;-86
2022/09/02 09:10:13;;;;;;;3.10;0.95;;;20.20;1.00;;;;;;6177694;23;20998;-86
2022/09/02 09:12:53;;;;;;;1.80;1.27;;;20.20;1.00;;;;;;6176375;23;20158;-87
2022/09/02 09:15:50;;;;;;;2.20;1.10;;;20.30;1.00;;;;;;6176331;23;20173;-87
2022/09/02 09:18:19;;;;;;;3.97;1.33;;;20.30;1.00;;;;;;6176585;23;20234;-88
2022/09/02 09:20:45;;;;;;;2.72;0.98;;;20.80;1.00;;;;;;6176843;23;20162;-87
2022/09/02 09:23:32;;;;;;;1.63;0.90;;;20.40;1.00;;;;;;6175951;23;20166;-88
2022/09/02 09:26:39;;;;;;;2.38;0.80;;;20.60;1.00;;;;;;6176864;23;20155;-89
2022/09/02 09:29:04;;;;;;;2.13;1.02;;;20.50;1.00;;;;;;6177199;23;20225;-88
2022/09/02 09:31:32;;;;;;;3.28;0.80;;;20.80;1.00;;;;;;6178283;23;20183;-89
2022/09/02 09:34:19;;;;;;;2.92;0.80;;;20.80;99.90;;;;;;6177505;23;20504;-88
2022/09/02 09:36:48;;;;;;;3.22;0.80;;;21.30;1.00;;;;;;6178034;23;20281;-87
2022/09/02 09:39:28;;;;;;;3.03;0.70;;;20.90;99.90;;;;;;6176175;23;20163;-87
2022/09/02 09:42:07;;;;;;;2.00;0.85;;;20.90;99.90;;;;;;6176283;23;20147;-88
2022/09/02 09:44:39;;;;;;;3.45;0.95;;;21.10;99.90;;;;;;6175840;23;20703;-88
2022/09/02 09:47:15;;;;;;;0.88;0.80;;;21.10;99.90;;;;;;6174173;23;20170;-88
2022/09/02 09:49:40;;;;;;;4.55;1.02;;;21.10;99.90;;;;;;6174689;23;20454;-87
2022/09/02 09:52:06;;;;;;;3.35;0.80;;;21.10;99.90;;;;;;6170956;23;20155;-88
2022/09/02 09:54:32;;;;;;;2.58;0.80;;;21.10;99.90;;;;;;6175556;23;20189;-88
2022/09/02 09:57:15;;;;;;;2.40;0.80;;;21.30;99.90;;;;;;6177131;23;20234;-88
2022/09/02 09:59:46;;;;;;;3.10;0.90;;;21.30;99.90;;;;;;6175894;23;20155;-85
2022/09/02 10:02:24;;;;;;;1.20;0.70;;;21.30;99.90;;;;;;6176441;23;20151;-88
2022/09/02 10:05:08;;;;;;;2.55;0.90;;;21.30;99.90;;;;;;6177069;23;20167;-88
2022/09/02 10:07:52;;;;;;;1.48;0.88;;;21.30;99.90;;;;;;6174017;23;20158;-90
2022/09/02 10:10:21;;;;;;;1.92;0.82;;;21.40;99.90;;;;;;6196039;23;20139;-88
2022/09/02 10:12:48;;;;;;;2.45;0.80;;;21.60;99.90;;;;;;6196972;23;20159;-87
2022/09/02 10:15:23;;;;;;;2.63;0.98;;;21.60;99.90;;;;;;6196034;23;20190;-89
2022/09/02 10:17:52;;;;;;;4.28;0.88;;;21.60;99.90;;;;;;6191095;23;20289;-88
2022/09/02 10:20:40;;;;;;;1.90;0.75;;;21.70;99.90;;;;;;6197439;23;20170;-87
2022/09/02 10:23:19;;;;;;;1.85;0.73;;;21.70;99.90;;;;;;6177484;23;20174;-88
2022/09/02 10:26:13;;;;;;;1.27;0.80;;;21.80;99.90;;;;;;6176615;23;20155;-88
2022/09/02 10:29:26;;;;;;;3.97;0.60;;;21.80;99.90;;;;;;6175884;23;20289;-88
2022/09/02 10:32:10;;;;;;;2.47;0.93;;;22.00;99.90;;;;;;6185298;23;20173;-87
2022/09/02 10:34:51;;;;;;;1.40;0.65;;;21.90;99.90;;;;;;6192823;23;20226;-87
2022/09/02 10:37:23;;;;;;;0.60;0.60;;;22.00;99.90;;;;;;6193901;23;20185;-88
2022/09/02 10:40:04;;;;;;;1.25;0.65;;;22.10;99.90;;;;;;6195227;23;20183;-86
2022/09/02 10:42:49;;;;;;;1.65;0.88;;;22.10;99.90;;;;;;6193947;23;20147;-87
2022/09/02 10:45:42;;;;;;;1.10;0.80;;;22.10;99.90;;;;;;6193340;23;20508;-88
2022/09/02 10:48:23;;;;;;;2.65;0.80;;;22.20;99.90;;;;;;6195657;23;20158;-88
2022/09/02 10:50:54;;;;;;;2.08;0.80;;;22.20;99.90;;;;;;6194511;23;20162;-87
2022/09/02 10:53:20;;;;;;;3.22;1.23;;;22.20;99.90;;;;;;6194026;23;20179;-87
2022/09/02 10:55:59;;;;;;;3.50;1.10;;;22.20;99.90;;;;;;6196500;23;20179;-87
2022/09/02 10:58:44;;;;;;;2.95;0.77;;;22.30;99.90;;;;;;6183452;23;20177;-88
2022/09/02 11:01:32;;;;;;;1.73;0.70;;;22.40;99.90;;;;;;6175168;23;20213;-90
2022/09/02 11:04:04;;;;;;;4.53;1.10;;;22.40;99.90;;;;;;6191624;23;20182;-88
2022/09/02 11:06:35;;;;;;;1.75;0.95;;;22.50;99.90;;;;;;6197215;23;20147;-87
2022/09/02 11:09:07;;;;;;;2.03;0.95;;;22.30;99.90;;;;;;6193657;23;20155;-88
2022/09/02 11:11:45;;;;;;;2.20;0.85;;;22.40;99.90;;;;;;6175354;23;20157;-87
2022/09/02 11:14:26;;;;;;;3.97;1.15;;;22.50;99.90;;;;;;6175715;23;20266;-89
2022/09/02 11:17:01;;;;;;;2.15;1.15;;;22.50;99.90;;;;;;6176865;23;20170;-87
2022/09/02 11:19:34;;;;;;;2.05;0.95;;;;;;;;;;6174556;23;20157;-88
2022/09/02 11:22:03;;;;;;;2.63;1.00;;;22.60;99.90;;;;;;6174726;23;20226;-86
2022/09/02 11:24:36;;;;;;;4.05;0.95;;;22.50;99.90;;;;;;6174339;23;20186;-89
2022/09/02 11:27:36;;;;;;;1.80;0.98;;;22.60;99.90;;;;;;6176530;23;20679;-87
2022/09/02 11:30:07;;;;;;;1.33;0.95;;;22.60;99.90;;;;;;6173156;23;20423;-85
2022/09/02 11:32:58;;;;;;;2.58;0.85;;;22.80;99.90;;;;;;6172938;23;20520;-88
2022/09/02 11:35:31;;;;;;;1.88;0.80;;;23.20;99.90;;;;;;6178107;23;20190;-87
2022/09/02 11:38:17;;;;;;;3.17;0.95;;;23.00;99.90;;;;;;6178819;23;20151;-86
2022/09/02 11:41:30;;;;;;;1.98;0.70;;;23.00;99.90;;;;;;6179576;23;20205;-87
2022/09/02 11:44:12;;;;;;;2.00;0.95;;;22.90;99.90;;;;;;6035109;23;20181;-87
2022/09/02 11:47:20;;;;;;;1.52;0.88;;;23.00;99.20;;;;;;6175914;23;20225;-88
2022/09/02 11:50:07;;;;;;;2.10;0.80;;;22.90;99.90;;;;;;6177100;23;20151;-87
2022/09/02 11:53:00;;;;;;;3.95;0.95;;;22.90;96.10;;;;;;6177407;23;20662;-87
2022/09/02 11:55:36;;;;;;;4.07;0.95;;;;;;;;;;6178498;23;20230;-86
2022/09/02 11:58:02;;;;;;;1.17;0.90;;;22.90;91.40;;;;;;6176653;23;20561;-85
2022/09/02 12:00:59;;;;;;;2.95;1.00;;;22.90;99.60;;;;;;6176683;23;20194;-87
2022/09/02 12:03:28;;;;;;;2.20;0.80;;;23.20;88.10;;;;;;6176590;23;20181;-87
2022/09/02 12:06:12;;;;;;;2.10;0.77;;;23.00;96.70;;;;;;6177041;23;20162;-87
2022/09/02 12:08:41;;;;;;;3.03;0.80;;;23.00;95.20;;;;;;6176823;23;20162;-85
2022/09/02 12:11:08;;;;;;;1.70;0.73;;;23.40;96.40;;;;;;6177126;23;20166;-86
2022/09/02 12:13:43;;;;;;;2.35;0.90;;;22.60;81.50;;;;;;6178989;23;20246;-86
2022/09/02 12:16:15;;;;;;;2.35;0.80;;;22.50;75.80;;;;;;6178906;23;20627;-87
2022/09/02 12:18:52;;;;;;;1.50;0.90;;;22.70;91.70;;;;;;6175435;23;20163;-84
2022/09/02 12:21:19;;;;;;;3.22;0.90;;;23.00;75.80;;;;;;6174776;23;20151;-84
2022/09/02 12:23:51;;;;;;;2.10;0.70;;;22.90;69.90;;;;;;6175869;23;20183;-85
2022/09/02 12:26:20;;;;;;;1.85;0.80;;;22.90;86.30;;;;;;6174308;23;20896;-90
2022/09/02 12:28:47;;;;;;;2.42;0.95;;;22.90;82.90;;;;;;6175464;23;20611;-86
2022/09/02 12:31:42;;;;;;;3.78;1.13;;;22.70;60.00;;;;;;6177705;23;20310;-86
2022/09/02 12:34:19;;;;;;;2.35;0.90;;;22.60;79.80;;;;;;6179943;23;20238;-85
2022/09/02 12:36:53;;;;;;;2.40;0.85;;;22.80;62.10;;;;;;6176046;23;20563;-87
2022/09/02 12:39:26;;;;;;;3.15;0.85;;;22.70;64.30;;;;;;6178410;23;20198;-88
2022/09/02 12:42:03;;;;;;;1.35;0.75;;;22.50;64.10;;;;;;6177723;23;20151;-86
2022/09/02 12:45:06;;;;;;;2.05;1.00;;;22.30;65.20;;;;;;6179578;23;20175;-86
2022/09/02 12:47:57;;;;;;;1.42;0.70;;;22.30;65.60;;;;;;6176358;23;20155;-87
2022/09/02 12:50:49;;;;;;;0.98;0.70;;;22.20;63.40;;;;;;6176932;23;20143;-84
2022/09/02 12:53:33;;;;;;;1.35;0.80;;;22.10;60.10;;;;;;6176385;23;20191;-84
2022/09/02 12:56:07;;;;;;;6.85;0.85;;;22.10;60.70;;;;;;6176003;23;20179;-87
2022/09/02 12:58:44;;;;;;;0.85;0.70;;;22.10;57.80;;;;;;6176403;23;20641;-86
2022/09/02 13:01:42;;;;;;;2.30;0.65;;;22.40;62.00;;;;;;6175488;23;20250;-84
2022/09/02 13:04:42;;;;;;;1.90;0.60;;;23.10;58.00;;;;;;6176160;23;20170;-86
2022/09/02 13:07:25;;;;;;;5.10;0.70;;;23.40;76.30;;;;;;6176653;23;20157;-86
2022/09/02 13:10:03;;;;;;;4.63;0.90;;;24.00;52.80;;;;;;6176724;23;20151;-86
2022/09/02 13:12:45;;;;;;;1.75;0.80;;;24.40;43.90;;;;;;6176478;23;20612;-87
2022/09/02 13:15:34;;;;;;;2.45;0.80;;;24.50;36.00;;;;;;6176317;23;20186;-86
2022/09/02 13:18:25;;;;;;;1.45;0.55;;;24.60;30.60;;;;;;6176009;23;20159;-86